sensor_id;sensor_type;location;lat;lon;timestamp;pressure;altitude;pressure_sealevel;temperature;humidity
77706;BME280;66874;45.274;5.880;2023-06-04T00:00:09;98933.81;;;15.03;81.90
77706;BME280;66874;45.274;5.880;2023-06-04T00:02:35;98934.78;;;15.01;81.94
77706;BME280;66874;45.274;5.880;2023-06-04T00:05:00;98934.97;;;14.96;81.78
77706;BME280;66874;45.274;5.880;2023-06-04T00:07:26;98932.50;;;14.92;81.73
77706;BME280;66874;45.274;5.880;2023-06-04T00:09:52;98932.50;;;14.92;81.48
77706;BME280;66874;45.274;5.880;2023-06-04T00:12:18;98930.03;;;14.87;81.76
77706;BME280;66874;45.274;5.880;2023-06-04T00:14:44;98930.03;;;14.87;81.78
77706;BME280;66874;45.274;5.880;2023-06-04T00:17:10;98925.75;;;14.84;82.01
77706;BME280;66874;45.274;5.880;2023-06-04T00:19:38;98918.66;;;14.86;82.07
77706;BME280;66874;45.274;5.880;2023-06-04T00:22:04;98909.97;;;14.84;82.17
77706;BME280;66874;45.274;5.880;2023-06-04T00:24:31;98916.13;;;14.83;82.27
77706;BME280;66874;45.274;5.880;2023-06-04T00:26:57;98919.66;;;14.84;82.34
77706;BME280;66874;45.274;5.880;2023-06-04T00:29:22;98914.50;;;14.81;82.19
77706;BME280;66874;45.274;5.880;2023-06-04T00:31:47;98904.00;;;14.79;82.29
77706;BME280;66874;45.274;5.880;2023-06-04T00:34:13;98902.25;;;14.80;82.34
77706;BME280;66874;45.274;5.880;2023-06-04T00:36:39;98900.50;;;14.79;82.57
77706;BME280;66874;45.274;5.880;2023-06-04T00:39:05;98887.47;;;14.76;82.38
77706;BME280;66874;45.274;5.880;2023-06-04T00:41:30;98888.47;;;14.73;82.63
77706;BME280;66874;45.274;5.880;2023-06-04T00:43:56;98886.78;;;14.71;82.64
77706;BME280;66874;45.274;5.880;2023-06-04T00:46:25;98890.38;;;14.68;82.75
77706;BME280;66874;45.274;5.880;2023-06-04T00:48:52;98891.38;;;14.65;82.59
77706;BME280;66874;45.274;5.880;2023-06-04T00:51:18;98895.84;;;14.63;82.52
77706;BME280;66874;45.274;5.880;2023-06-04T00:53:44;98893.19;;;14.63;82.55
77706;BME280;66874;45.274;5.880;2023-06-04T00:56:09;98888.03;;;14.60;82.62
77706;BME280;66874;45.274;5.880;2023-06-04T00:58:39;98886.41;;;14.58;82.57
77706;BME280;66874;45.274;5.880;2023-06-04T01:01:08;98883.88;;;14.55;82.78
77706;BME280;66874;45.274;5.880;2023-06-04T01:03:38;98881.19;;;14.56;82.82
77706;BME280;66874;45.274;5.880;2023-06-04T01:06:10;98876.81;;;14.57;82.78
77706;BME280;66874;45.274;5.880;2023-06-04T01:08:39;98875.88;;;14.58;82.69
77706;BME280;66874;45.274;5.880;2023-06-04T01:11:08;98875.88;;;14.58;82.66
77706;BME280;66874;45.274;5.880;2023-06-04T01:13:33;98876.81;;;14.57;82.75
77706;BME280;66874;45.274;5.880;2023-06-04T01:15:58;98887.34;;;14.57;82.79
77706;BME280;66874;45.274;5.880;2023-06-04T01:18:27;98886.53;;;14.55;82.83
77706;BME280;66874;45.274;5.880;2023-06-04T01:21:06;98890.25;;;14.49;82.86
77706;BME280;66874;45.274;5.880;2023-06-04T01:23:51;98894.78;;;14.44;82.95
77706;BME280;66874;45.274;5.880;2023-06-04T01:26:24;98891.53;;;14.37;82.88
77706;BME280;66874;45.274;5.880;2023-06-04T01:28:51;98888.28;;;14.31;82.83
77706;BME280;66874;45.274;5.880;2023-06-04T01:31:17;98884.84;;;14.29;82.96
77706;BME280;66874;45.274;5.880;2023-06-04T01:33:42;98883.19;;;14.26;83.12
77706;BME280;66874;45.274;5.880;2023-06-04T01:36:08;98878.78;;;14.27;83.04
77706;BME280;66874;45.274;5.880;2023-06-04T01:38:35;98875.41;;;14.23;83.03
77706;BME280;66874;45.274;5.880;2023-06-04T01:41:01;98882.56;;;14.20;83.09
77706;BME280;66874;45.274;5.880;2023-06-04T01:43:27;98880.88;;;14.17;83.30
77706;BME280;66874;45.274;5.880;2023-06-04T01:45:53;98888.00;;;14.15;83.10
77706;BME280;66874;45.274;5.880;2023-06-04T01:48:19;98888.88;;;14.14;83.11
77706;BME280;66874;45.274;5.880;2023-06-04T01:50:45;98891.56;;;14.12;83.16
77706;BME280;66874;45.274;5.880;2023-06-04T01:53:10;98893.34;;;14.12;83.22
77706;BME280;66874;45.274;5.880;2023-06-04T01:55:36;98900.31;;;14.13;83.23
77706;BME280;66874;45.274;5.880;2023-06-04T01:58:02;98901.13;;;14.15;83.26
77706;BME280;66874;45.274;5.880;2023-06-04T02:00:28;98894.97;;;14.16;83.09
77706;BME280;66874;45.274;5.880;2023-06-04T02:02:54;98897.66;;;14.14;83.07
77706;BME280;66874;45.274;5.880;2023-06-04T02:05:21;98897.59;;;14.16;83.25
77706;BME280;66874;45.274;5.880;2023-06-04T02:07:46;98901.19;;;14.13;83.39
77706;BME280;66874;45.274;5.880;2023-06-04T02:10:14;98897.66;;;14.14;83.34
77706;BME280;66874;45.274;5.880;2023-06-04T02:12:53;98894.13;;;14.14;83.49
77706;BME280;66874;45.274;5.880;2023-06-04T02:15:19;98888.03;;;14.13;83.32
77706;BME280;66874;45.274;5.880;2023-06-04T02:17:44;98887.00;;;14.17;83.22
77706;BME280;66874;45.274;5.880;2023-06-04T02:20:11;98887.91;;;14.16;83.51
77706;BME280;66874;45.274;5.880;2023-06-04T02:22:37;98881.72;;;14.17;83.42
77706;BME280;66874;45.274;5.880;2023-06-04T02:25:03;98884.31;;;14.19;83.55
77706;BME280;66874;45.274;5.880;2023-06-04T02:27:29;98883.41;;;14.20;83.44
77706;BME280;66874;45.274;5.880;2023-06-04T02:29:54;98886.88;;;14.21;83.43
77706;BME280;66874;45.274;5.880;2023-06-04T02:32:20;98893.94;;;14.20;83.50
77706;BME280;66874;45.274;5.880;2023-06-04T02:34:45;98888.59;;;14.22;83.31
77706;BME280;66874;45.274;5.880;2023-06-04T02:37:10;98894.78;;;14.21;83.48
77706;BME280;66874;45.274;5.880;2023-06-04T02:39:36;98893.84;;;14.22;83.61
77706;BME280;66874;45.274;5.880;2023-06-04T02:42:01;98896.50;;;14.22;83.56
77706;BME280;66874;45.274;5.880;2023-06-04T02:44:26;98898.28;;;14.21;83.46
77706;BME280;66874;45.274;5.880;2023-06-04T02:46:54;98896.84;;;14.12;83.95
77706;BME280;66874;45.274;5.880;2023-06-04T02:49:19;98899.94;;;13.99;84.07
77706;BME280;66874;45.274;5.880;2023-06-04T02:51:45;98901.13;;;13.90;84.64
77706;BME280;66874;45.274;5.880;2023-06-04T02:54:11;98908.28;;;13.86;84.92
77706;BME280;66874;45.274;5.880;2023-06-04T02:56:37;98912.75;;;13.84;85.01
77706;BME280;66874;45.274;5.880;2023-06-04T02:59:03;98904.78;;;13.86;84.94
77706;BME280;66874;45.274;5.880;2023-06-04T03:01:28;98905.44;;;13.92;84.82
77706;BME280;66874;45.274;5.880;2023-06-04T03:03:54;98913.09;;;13.99;84.79
77706;BME280;66874;45.274;5.880;2023-06-04T03:06:21;98915.63;;;14.02;84.93
77706;BME280;66874;45.274;5.880;2023-06-04T03:08:48;98904.09;;;14.06;84.75
77706;BME280;66874;45.274;5.880;2023-06-04T03:11:13;98905.69;;;14.10;84.49
77706;BME280;66874;45.274;5.880;2023-06-04T03:13:39;98914.31;;;14.13;84.62
77706;BME280;66874;45.274;5.880;2023-06-04T03:16:05;98914.28;;;14.15;84.53
77706;BME280;66874;45.274;5.880;2023-06-04T03:18:37;98909.81;;;14.17;84.53
77706;BME280;66874;45.274;5.880;2023-06-04T03:21:06;98909.81;;;14.17;84.57
77706;BME280;66874;45.274;5.880;2023-06-04T03:23:33;98906.34;;;14.16;84.58
77706;BME280;66874;45.274;5.880;2023-06-04T03:26:01;98906.34;;;14.16;84.44
77706;BME280;66874;45.274;5.880;2023-06-04T03:28:27;98906.34;;;14.16;84.45
77706;BME280;66874;45.274;5.880;2023-06-04T03:30:52;98906.34;;;14.16;84.36
77706;BME280;66874;45.274;5.880;2023-06-04T03:33:17;98909.88;;;14.15;84.47
77706;BME280;66874;45.274;5.880;2023-06-04T03:35:43;98906.34;;;14.16;84.51
77706;BME280;66874;45.274;5.880;2023-06-04T03:38:08;98910.66;;;14.17;84.45
77706;BME280;66874;45.274;5.880;2023-06-04T03:40:34;98911.53;;;14.18;84.41
77706;BME280;66874;45.274;5.880;2023-06-04T03:42:59;98915.81;;;14.21;84.33
77706;BME280;66874;45.274;5.880;2023-06-04T03:45:25;98910.53;;;14.22;84.40
77706;BME280;66874;45.274;5.880;2023-06-04T03:47:51;98908.75;;;14.23;84.44
77706;BME280;66874;45.274;5.880;2023-06-04T03:50:18;98919.31;;;14.21;84.56
77706;BME280;66874;45.274;5.880;2023-06-04T03:52:43;98915.81;;;14.21;84.29
77706;BME280;66874;45.274;5.880;2023-06-04T03:55:09;98910.63;;;14.19;84.57
77706;BME280;66874;45.274;5.880;2023-06-04T03:57:36;98908.91;;;14.18;84.48
77706;BME280;66874;45.274;5.880;2023-06-04T04:00:07;98918.53;;;14.19;84.56
77706;BME280;66874;45.274;5.880;2023-06-04T04:02:35;98913.38;;;14.16;84.34
77706;BME280;66874;45.274;5.880;2023-06-04T04:05:01;98913.44;;;14.14;84.49
77706;BME280;66874;45.274;5.880;2023-06-04T04:07:26;98905.56;;;14.14;84.44
77706;BME280;66874;45.274;5.880;2023-06-04T04:09:51;98911.66;;;14.15;84.32
77706;BME280;66874;45.274;5.880;2023-06-04T04:12:17;98908.03;;;14.17;84.40
77706;BME280;66874;45.274;5.880;2023-06-04T04:14:42;98909.78;;;14.19;84.49
77706;BME280;66874;45.274;5.880;2023-06-04T04:17:08;98913.25;;;14.19;84.41
77706;BME280;66874;45.274;5.880;2023-06-04T04:19:33;98913.31;;;14.17;84.26
77706;BME280;66874;45.274;5.880;2023-06-04T04:21:59;98908.97;;;14.16;84.23
77706;BME280;66874;45.274;5.880;2023-06-04T04:24:26;98907.25;;;14.15;84.37
77706;BME280;66874;45.274;5.880;2023-06-04T04:26:52;98909.81;;;14.17;84.49
77706;BME280;66874;45.274;5.880;2023-06-04T04:29:22;98913.25;;;14.19;84.40
77706;BME280;66874;45.274;5.880;2023-06-04T04:31:48;98917.53;;;14.22;84.32
77706;BME280;66874;45.274;5.880;2023-06-04T04:34:14;98914.88;;;14.23;84.32
77706;BME280;66874;45.274;5.880;2023-06-04T04:36:40;98911.38;;;14.23;84.36
77706;BME280;66874;45.274;5.880;2023-06-04T04:39:05;98917.44;;;14.25;84.39
77706;BME280;66874;45.274;5.880;2023-06-04T04:41:31;98919.13;;;14.26;84.14
77706;BME280;66874;45.274;5.880;2023-06-04T04:44:03;98915.63;;;14.27;84.39
77706;BME280;66874;45.274;5.880;2023-06-04T04:46:32;98915.63;;;14.27;84.24
77706;BME280;66874;45.274;5.880;2023-06-04T04:48:57;98921.66;;;14.29;84.30
77706;BME280;66874;45.274;5.880;2023-06-04T04:51:22;98917.22;;;14.31;84.42
77706;BME280;66874;45.274;5.880;2023-06-04T04:53:48;98918.94;;;14.32;84.38
77706;BME280;66874;45.274;5.880;2023-06-04T04:56:14;98918.00;;;14.33;84.35
77706;BME280;66874;45.274;5.880;2023-06-04T04:58:39;98912.63;;;14.36;84.56
77706;BME280;66874;45.274;5.880;2023-06-04T05:01:05;98913.38;;;14.39;84.39
77706;BME280;66874;45.274;5.880;2023-06-04T05:03:30;98910.66;;;14.43;84.36
77706;BME280;66874;45.274;5.880;2023-06-04T05:05:56;98912.25;;;14.47;84.25
77706;BME280;66874;45.274;5.880;2023-06-04T05:08:21;98907.94;;;14.44;84.25
77706;BME280;66874;45.274;5.880;2023-06-04T05:10:46;98907.09;;;14.44;84.34
77706;BME280;66874;45.274;5.880;2023-06-04T05:13:13;98911.31;;;14.48;84.42
77706;BME280;66874;45.274;5.880;2023-06-04T05:15:38;98910.22;;;14.55;84.11
77706;BME280;66874;45.274;5.880;2023-06-04T05:18:05;98907.22;;;14.64;84.35
77706;BME280;66874;45.274;5.880;2023-06-04T05:20:30;98911.44;;;14.68;84.18
77706;BME280;66874;45.274;5.880;2023-06-04T05:22:56;98904.28;;;14.72;84.11
77706;BME280;66874;45.274;5.880;2023-06-04T05:25:21;98908.41;;;14.79;84.16
77706;BME280;66874;45.274;5.880;2023-06-04T05:27:47;98914.38;;;14.84;84.08
77706;BME280;66874;45.274;5.880;2023-06-04T05:30:14;98908.81;;;14.92;84.03
77706;BME280;66874;45.274;5.880;2023-06-04T05:32:40;98913.03;;;14.96;84.12
77706;BME280;66874;45.274;5.880;2023-06-04T05:35:06;98919.81;;;15.01;84.12
77706;BME280;66874;45.274;5.880;2023-06-04T05:37:32;98914.56;;;15.01;84.12
77706;BME280;66874;45.274;5.880;2023-06-04T05:40:00;98917.19;;;15.01;84.08
77706;BME280;66874;45.274;5.880;2023-06-04T05:42:25;98916.16;;;15.05;84.20
77706;BME280;66874;45.274;5.880;2023-06-04T05:44:50;98910.75;;;15.08;84.14
77706;BME280;66874;45.274;5.880;2023-06-04T05:47:17;98907.94;;;15.13;84.01
77706;BME280;66874;45.274;5.880;2023-06-04T05:49:43;98905.97;;;15.18;84.03
77706;BME280;66874;45.274;5.880;2023-06-04T05:52:09;98908.28;;;15.26;84.15
77706;BME280;66874;45.274;5.880;2023-06-04T05:54:34;98910.56;;;15.35;84.20
77706;BME280;66874;45.274;5.880;2023-06-04T05:57:02;98918.16;;;15.43;83.90
77706;BME280;66874;45.274;5.880;2023-06-04T05:59:29;98919.75;;;15.47;83.96
77706;BME280;66874;45.274;5.880;2023-06-04T06:01:55;98909.28;;;15.45;83.99
77706;BME280;66874;45.274;5.880;2023-06-04T06:04:20;98911.97;;;15.44;83.98
77706;BME280;66874;45.274;5.880;2023-06-04T06:06:45;98912.94;;;15.41;84.04
77706;BME280;66874;45.274;5.880;2023-06-04T06:09:13;98920.84;;;15.41;83.87
77706;BME280;66874;45.274;5.880;2023-06-04T06:11:40;98922.69;;;15.39;83.82
77706;BME280;66874;45.274;5.880;2023-06-04T06:14:05;98919.22;;;15.38;83.92
77706;BME280;66874;45.274;5.880;2023-06-04T06:16:31;98924.38;;;15.42;83.85
77706;BME280;66874;45.274;5.880;2023-06-04T06:18:57;98911.91;;;15.45;83.72
77706;BME280;66874;45.274;5.880;2023-06-04T06:21:22;98913.66;;;15.45;83.52
77706;BME280;66874;45.274;5.880;2023-06-04T06:23:48;98915.66;;;15.39;83.63
77706;BME280;66874;45.274;5.880;2023-06-04T06:26:13;98923.34;;;15.44;83.28
77706;BME280;66874;45.274;5.880;2023-06-04T06:28:39;98920.41;;;15.52;83.29
77706;BME280;66874;45.274;5.880;2023-06-04T06:31:04;98913.03;;;15.60;83.33
77706;BME280;66874;45.274;5.880;2023-06-04T06:33:30;98916.25;;;15.68;83.11
77706;BME280;66874;45.274;5.880;2023-06-04T06:35:56;98921.47;;;15.70;83.28
77706;BME280;66874;45.274;5.880;2023-06-04T06:38:26;98923.16;;;15.71;83.11
77706;BME280;66874;45.274;5.880;2023-06-04T06:40:52;98929.50;;;15.87;83.02
77706;BME280;66874;45.274;5.880;2023-06-04T06:43:17;98926.19;;;16.02;83.07
77706;BME280;66874;45.274;5.880;2023-06-04T06:45:43;98925.81;;;16.11;83.00
77706;BME280;66874;45.274;5.880;2023-06-04T06:48:08;98927.38;;;16.16;82.66
77706;BME280;66874;45.274;5.880;2023-06-04T06:50:34;98934.25;;;16.20;82.58
77706;BME280;66874;45.274;5.880;2023-06-04T06:53:01;98933.06;;;16.27;82.67
77706;BME280;66874;45.274;5.880;2023-06-04T06:55:27;98938.03;;;16.33;82.50
77706;BME280;66874;45.274;5.880;2023-06-04T06:57:52;98927.31;;;16.38;82.35
77706;BME280;66874;45.274;5.880;2023-06-04T07:00:18;98925.22;;;16.44;82.17
77706;BME280;66874;45.274;5.880;2023-06-04T07:02:43;98922.91;;;16.57;81.91
77706;BME280;66874;45.274;5.880;2023-06-04T07:05:10;98921.47;;;16.69;81.70
77706;BME280;66874;45.274;5.880;2023-06-04T07:07:35;98922.84;;;16.77;81.58
77706;BME280;66874;45.274;5.880;2023-06-04T07:10:01;98918.78;;;16.89;81.33
77706;BME280;66874;45.274;5.880;2023-06-04T07:12:29;98918.28;;;17.00;80.82
77706;BME280;66874;45.274;5.880;2023-06-04T07:14:54;98916.03;;;17.09;80.63
77706;BME280;66874;45.274;5.880;2023-06-04T07:17:21;98918.44;;;17.14;80.49
77706;BME280;66874;45.274;5.880;2023-06-04T07:19:46;98922.47;;;17.23;80.61
77706;BME280;66874;45.274;5.880;2023-06-04T07:22:12;98924.50;;;17.35;80.62
77706;BME280;66874;45.274;5.880;2023-06-04T07:24:37;98918.59;;;17.47;80.80
77706;BME280;66874;45.274;5.880;2023-06-04T07:27:10;98907.66;;;17.55;80.53
77706;BME280;66874;45.274;5.880;2023-06-04T07:29:36;98908.97;;;17.64;79.76
77706;BME280;66874;45.274;5.880;2023-06-04T07:32:01;98908.66;;;17.70;79.83
77706;BME280;66874;45.274;5.880;2023-06-04T07:34:27;98911.31;;;17.87;79.59
77706;BME280;66874;45.274;5.880;2023-06-04T07:36:52;98919.25;;;18.04;79.39
77706;BME280;66874;45.274;5.880;2023-06-04T07:39:18;98910.63;;;18.18;78.86
77706;BME280;66874;45.274;5.880;2023-06-04T07:41:43;98913.56;;;18.29;78.29
77706;BME280;66874;45.274;5.880;2023-06-04T07:44:08;98904.84;;;18.43;78.08
77706;BME280;66874;45.274;5.880;2023-06-04T07:46:34;98904.59;;;18.48;77.31
77706;BME280;66874;45.274;5.880;2023-06-04T07:48:59;98901.25;;;18.44;77.21
77706;BME280;66874;45.274;5.880;2023-06-04T07:51:25;98900.34;;;18.45;76.63
77706;BME280;66874;45.274;5.880;2023-06-04T07:53:51;98899.31;;;18.48;76.36
77706;BME280;66874;45.274;5.880;2023-06-04T07:56:16;98897.19;;;18.54;76.05
77706;BME280;66874;45.274;5.880;2023-06-04T07:58:43;98897.78;;;18.60;75.92
77706;BME280;66874;45.274;5.880;2023-06-04T08:01:09;98888.16;;;18.74;75.99
77706;BME280;66874;45.274;5.880;2023-06-04T08:03:34;98892.72;;;18.88;75.80
77706;BME280;66874;45.274;5.880;2023-06-04T08:06:00;98887.41;;;19.04;75.63
77706;BME280;66874;45.274;5.880;2023-06-04T08:08:25;98889.44;;;19.15;75.47
77706;BME280;66874;45.274;5.880;2023-06-04T08:10:50;98884.41;;;19.26;75.10
77706;BME280;66874;45.274;5.880;2023-06-04T08:13:16;98881.19;;;19.35;74.97
77706;BME280;66874;45.274;5.880;2023-06-04T08:15:41;98885.09;;;19.44;74.93
77706;BME280;66874;45.274;5.880;2023-06-04T08:18:07;98881.09;;;19.52;75.06
77706;BME280;66874;45.274;5.880;2023-06-04T08:20:32;98886.78;;;19.61;74.45
77706;BME280;66874;45.274;5.880;2023-06-04T08:22:57;98888.59;;;19.60;74.12
77706;BME280;66874;45.274;5.880;2023-06-04T08:25:23;98887.63;;;19.61;73.86
77706;BME280;66874;45.274;5.880;2023-06-04T08:27:48;98879.44;;;19.66;73.95
77706;BME280;66874;45.274;5.880;2023-06-04T08:30:14;98886.25;;;19.70;73.33
77706;BME280;66874;45.274;5.880;2023-06-04T08:32:39;98880.78;;;19.73;73.31
77706;BME280;66874;45.274;5.880;2023-06-04T08:35:06;98881.75;;;19.86;73.40
77706;BME280;66874;45.274;5.880;2023-06-04T08:37:32;98879.97;;;20.01;73.07
77706;BME280;66874;45.274;5.880;2023-06-04T08:39:57;98875.81;;;20.11;72.76
77706;BME280;66874;45.274;5.880;2023-06-04T08:42:30;98875.16;;;20.22;72.90
77706;BME280;66874;45.274;5.880;2023-06-04T08:44:57;98878.38;;;20.27;72.37
77706;BME280;66874;45.274;5.880;2023-06-04T08:47:24;98874.97;;;20.39;72.27
77706;BME280;66874;45.274;5.880;2023-06-04T08:49:50;98876.31;;;20.61;72.00
77706;BME280;66874;45.274;5.880;2023-06-04T08:52:16;98878.38;;;20.70;71.70
77706;BME280;66874;45.274;5.880;2023-06-04T08:54:42;98875.19;;;20.92;71.21
77706;BME280;66874;45.274;5.880;2023-06-04T08:57:08;98871.28;;;20.97;70.81
77706;BME280;66874;45.274;5.880;2023-06-04T08:59:34;98876.75;;;21.09;70.47
77706;BME280;66874;45.274;5.880;2023-06-04T09:02:00;98869.31;;;21.14;70.29
77706;BME280;66874;45.274;5.880;2023-06-04T09:04:27;98865.88;;;21.26;70.00
77706;BME280;66874;45.274;5.880;2023-06-04T09:06:54;98864.25;;;21.38;69.39
77706;BME280;66874;45.274;5.880;2023-06-04T09:09:21;98862.69;;;21.61;68.46
77706;BME280;66874;45.274;5.880;2023-06-04T09:11:54;98866.03;;;21.77;68.18
77706;BME280;66874;45.274;5.880;2023-06-04T09:14:20;98867.09;;;21.87;67.20
77706;BME280;66874;45.274;5.880;2023-06-04T09:16:52;98863.78;;;21.97;66.38
77706;BME280;66874;45.274;5.880;2023-06-04T09:19:19;98867.09;;;22.00;67.07
77706;BME280;66874;45.274;5.880;2023-06-04T09:21:55;98861.97;;;22.10;67.24
77706;BME280;66874;45.274;5.880;2023-06-04T09:24:22;98859.44;;;22.21;66.33
77706;BME280;66874;45.274;5.880;2023-06-04T09:26:49;98861.47;;;22.30;65.90
77706;BME280;66874;45.274;5.880;2023-06-04T09:29:15;98861.28;;;22.33;65.28
77706;BME280;66874;45.274;5.880;2023-06-04T09:31:41;98860.31;;;22.34;64.58
77706;BME280;66874;45.274;5.880;2023-06-04T09:34:07;98858.81;;;22.17;64.30
77706;BME280;66874;45.274;5.880;2023-06-04T09:36:33;98858.38;;;22.11;64.62
77706;BME280;66874;45.274;5.880;2023-06-04T09:39:00;98847.00;;;22.22;64.83
77706;BME280;66874;45.274;5.880;2023-06-04T09:41:25;98849.00;;;22.31;64.19
77706;BME280;66874;45.274;5.880;2023-06-04T09:43:59;98852.41;;;22.46;63.12
77706;BME280;66874;45.274;5.880;2023-06-04T09:46:24;98849.72;;;22.46;63.02
77706;BME280;66874;45.274;5.880;2023-06-04T09:49:02;98842.38;;;22.36;62.46
77706;BME280;66874;45.274;5.880;2023-06-04T09:51:29;98836.59;;;22.55;63.04
77706;BME280;66874;45.274;5.880;2023-06-04T09:53:59;98831.53;;;22.76;62.66
77706;BME280;66874;45.274;5.880;2023-06-04T09:56:26;98827.13;;;23.12;61.77
77706;BME280;66874;45.274;5.880;2023-06-04T09:59:01;98830.94;;;23.21;60.78
77706;BME280;66874;45.274;5.880;2023-06-04T10:01:28;98827.84;;;23.38;60.16
77706;BME280;66874;45.274;5.880;2023-06-04T10:03:54;98814.63;;;23.72;59.59
77706;BME280;66874;45.274;5.880;2023-06-04T10:06:21;98818.44;;;24.03;60.32
77706;BME280;66874;45.274;5.880;2023-06-04T10:08:48;98808.09;;;24.32;59.49
77706;BME280;66874;45.274;5.880;2023-06-04T10:11:17;98812.63;;;24.54;59.29
77706;BME280;66874;45.274;5.880;2023-06-04T10:16:33;98807.66;;;24.93;57.60
77706;BME280;66874;45.274;5.880;2023-06-04T10:19:00;98803.97;;;25.16;57.43
77706;BME280;66874;45.274;5.880;2023-06-04T10:21:26;98797.31;;;25.31;57.22
77706;BME280;66874;45.274;5.880;2023-06-04T10:23:53;98791.34;;;25.60;56.62
77706;BME280;66874;45.274;5.880;2023-06-04T10:26:18;98795.31;;;25.87;56.28
77706;BME280;66874;45.274;5.880;2023-06-04T10:28:44;98790.09;;;26.16;55.82
77706;BME280;66874;45.274;5.880;2023-06-04T10:31:10;98794.78;;;26.23;55.26
77706;BME280;66874;45.274;5.880;2023-06-04T10:33:36;98792.13;;;26.23;55.06
77706;BME280;66874;45.274;5.880;2023-06-04T10:36:16;98790.44;;;26.32;54.01
77706;BME280;66874;45.274;5.880;2023-06-04T10:38:49;98792.16;;;26.33;53.82
77706;BME280;66874;45.274;5.880;2023-06-04T10:41:17;98779.75;;;26.42;53.47
77706;BME280;66874;45.274;5.880;2023-06-04T10:43:44;98773.91;;;26.67;53.10
77706;BME280;66874;45.274;5.880;2023-06-04T10:46:13;98775.78;;;26.86;53.60
77706;BME280;66874;45.274;5.880;2023-06-04T10:48:53;98774.25;;;27.03;53.46
77706;BME280;66874;45.274;5.880;2023-06-04T10:51:32;98769.47;;;27.26;51.64
77706;BME280;66874;45.274;5.880;2023-06-04T10:54:00;98763.22;;;27.35;51.01
77706;BME280;66874;45.274;5.880;2023-06-04T10:56:33;98754.47;;;27.53;50.46
77706;BME280;66874;45.274;5.880;2023-06-04T10:58:59;98762.75;;;27.59;49.91
77706;BME280;66874;45.274;5.880;2023-06-04T11:01:26;98755.13;;;27.74;49.23
77706;BME280;66874;45.274;5.880;2023-06-04T11:03:52;98756.88;;;28.03;49.31
77706;BME280;66874;45.274;5.880;2023-06-04T11:06:18;98744.44;;;28.29;48.50
77706;BME280;66874;45.274;5.880;2023-06-04T11:08:43;98746.94;;;28.40;48.31
77706;BME280;66874;45.274;5.880;2023-06-04T11:11:16;98737.34;;;28.56;48.58
77706;BME280;66874;45.274;5.880;2023-06-04T11:13:42;98741.34;;;28.52;47.63
77706;BME280;66874;45.274;5.880;2023-06-04T11:16:34;98740.09;;;28.74;47.83
77706;BME280;66874;45.274;5.880;2023-06-04T11:19:00;98744.03;;;29.15;47.31
77706;BME280;66874;45.274;5.880;2023-06-04T11:21:25;98740.56;;;29.40;46.63
77706;BME280;66874;45.274;5.880;2023-06-04T11:24:00;98738.16;;;29.37;46.40
77706;BME280;66874;45.274;5.880;2023-06-04T11:26:33;98739.88;;;29.20;45.80
77706;BME280;66874;45.274;5.880;2023-06-04T11:28:58;98737.88;;;29.23;45.67
77706;BME280;66874;45.274;5.880;2023-06-04T11:31:24;98741.00;;;29.36;45.77
77706;BME280;66874;45.274;5.880;2023-06-04T11:33:50;98737.09;;;29.74;45.26
77706;BME280;66874;45.274;5.880;2023-06-04T11:36:27;98732.25;;;29.86;44.52
77706;BME280;66874;45.274;5.880;2023-06-04T11:39:00;98729.28;;;29.97;44.65
77706;BME280;66874;45.274;5.880;2023-06-04T11:41:30;98729.78;;;30.27;43.03
77706;BME280;66874;45.274;5.880;2023-06-04T11:43:56;98732.25;;;30.62;42.87
77706;BME280;66874;45.274;5.880;2023-06-04T11:46:23;98730.47;;;30.79;41.16
77706;BME280;66874;45.274;5.880;2023-06-04T11:48:51;98724.44;;;31.10;41.90
77706;BME280;66874;45.274;5.880;2023-06-04T11:51:17;98730.38;;;31.30;41.05
77706;BME280;66874;45.274;5.880;2023-06-04T11:53:42;98725.13;;;31.45;41.22
77706;BME280;66874;45.274;5.880;2023-06-04T11:56:08;98714.44;;;31.68;40.11
77706;BME280;66874;45.274;5.880;2023-06-04T11:58:34;98709.16;;;31.91;39.71
77706;BME280;66874;45.274;5.880;2023-06-04T12:01:00;98703.72;;;31.82;39.95
77706;BME280;66874;45.274;5.880;2023-06-04T12:06:18;98709.09;;;32.46;39.65
77706;BME280;66874;45.274;5.880;2023-06-04T12:08:54;98707.25;;;32.70;38.26
77706;BME280;66874;45.274;5.880;2023-06-04T12:11:31;98701.69;;;32.71;37.52
77706;BME280;66874;45.274;5.880;2023-06-04T12:14:04;98696.97;;;32.88;38.17
77706;BME280;66874;45.274;5.880;2023-06-04T12:16:30;98691.00;;;32.93;37.88
77706;BME280;66874;45.274;5.880;2023-06-04T12:19:25;98689.06;;;33.24;36.77
77706;BME280;66874;45.274;5.880;2023-06-04T12:22:04;98684.03;;;33.36;36.80
77706;BME280;66874;45.274;5.880;2023-06-04T12:24:34;98679.50;;;33.51;36.90
77706;BME280;66874;45.274;5.880;2023-06-04T12:27:07;98681.03;;;33.54;36.15
77706;BME280;66874;45.274;5.880;2023-06-04T12:29:33;98680.56;;;33.50;35.64
77706;BME280;66874;45.274;5.880;2023-06-04T12:32:09;98668.66;;;33.51;36.21
77706;BME280;66874;45.274;5.880;2023-06-04T12:34:39;98670.38;;;33.67;35.94
77706;BME280;66874;45.274;5.880;2023-06-04T12:37:05;98670.09;;;33.92;36.98
77706;BME280;66874;45.274;5.880;2023-06-04T12:39:37;98667.28;;;34.15;35.36
77706;BME280;66874;45.274;5.880;2023-06-04T12:42:05;98661.53;;;34.24;35.02
77706;BME280;66874;45.274;5.880;2023-06-04T12:44:32;98655.81;;;34.34;34.87
77706;BME280;66874;45.274;5.880;2023-06-04T12:46:57;98644.63;;;34.22;33.85
77706;BME280;66874;45.274;5.880;2023-06-04T12:49:23;98647.28;;;34.37;33.28
77706;BME280;66874;45.274;5.880;2023-06-04T12:51:48;98640.81;;;34.38;33.45
77706;BME280;66874;45.274;5.880;2023-06-04T12:54:13;98643.94;;;34.20;33.55
77706;BME280;66874;45.274;5.880;2023-06-04T12:56:40;98654.84;;;33.76;33.89
77706;BME280;66874;45.274;5.880;2023-06-04T12:59:06;98655.44;;;33.34;34.04
77706;BME280;66874;45.274;5.880;2023-06-04T13:01:32;98650.91;;;32.88;35.52
77706;BME280;66874;45.274;5.880;2023-06-04T13:03:57;98651.16;;;32.78;35.88